Time;durP1;ratioP1;P1;durP2;ratioP2;P2;SDS_P1;SDS_P2;PMS_P1;PMS_P2;Temp;Humidity;BMP_temperature;BMP_pressure;BME280_temperature;BME280_humidity;BME280_pressure;Samples;Min_cycle;Max_cycle;Signal;HPM_P1;HPM_P2
2022/10/07 00:01:25;;;;;;;;;16.00;15.33;;;;;;;;5105403;27;45425;-77
2022/10/07 00:03:50;;;;;;;;;19.67;15.33;;;;;;;;5086722;27;47224;-77
2022/10/07 00:06:17;;;;;;;;;22.00;16.67;;;;;;;;5097331;27;45363;-76
2022/10/07 00:08:43;;;;;;;;;18.67;17.00;;;;;;;;5083434;27;45367;-77
2022/10/07 00:11:10;;;;;;;;;16.00;14.00;;;;;;;;5105098;27;45044;-75
2022/10/07 00:13:37;;;;;;;;;17.33;15.67;;;;;;;;5104476;27;45507;-76
2022/10/07 00:16:05;;;;;;;;;17.33;13.67;;;;;;;;5099439;27;45405;-75
2022/10/07 00:18:31;;;;;;;;;16.33;13.00;;;;;;;;5097070;27;45421;-74
2022/10/07 00:20:56;;;;;;;;;18.00;15.67;;;;;;;;5092286;27;45462;-77
2022/10/07 00:23:21;;;;;;;;;20.00;16.00;;;;;;;;5104618;27;45330;-74
2022/10/07 00:25:47;;;;;;;;;20.67;18.00;;;;;;;;5105117;27;45172;-75
2022/10/07 00:28:12;;;;;;;;;19.67;18.00;;;;;;;;5088445;27;45406;-76
2022/10/07 00:30:37;;;;;;;;;20.00;17.67;;;;;;;;5099060;27;45398;-75
2022/10/07 00:33:03;;;;;;;;;18.00;16.00;;;;;;;;5097918;27;45220;-73
2022/10/07 00:35:28;;;;;;;;;28.67;24.00;;;;;;;;5097293;27;45413;-75
2022/10/07 00:37:53;;;;;;;;;23.00;20.33;;;;;;;;5100532;27;44815;-75
2022/10/07 00:40:19;;;;;;;;;18.33;15.00;;;;;;;;5104567;27;45843;-76
2022/10/07 00:42:44;;;;;;;;;21.67;20.67;;;;;;;;5102149;27;45458;-75
2022/10/07 00:45:14;;;;;;;;;18.00;15.00;;;;;;;;5103867;27;45386;-74
2022/10/07 00:47:40;;;;;;;;;25.00;22.00;;;;;;;;5084645;27;44798;-75
2022/10/07 00:50:07;;;;;;;;;26.00;20.67;;;;;;;;5065148;27;44841;-77
2022/10/07 00:52:36;;;;;;;;;24.00;21.67;;;;;;;;5083631;27;45371;-74
2022/10/07 00:55:04;;;;;;;;;22.67;20.00;;;;;;;;5085680;27;45343;-74
2022/10/07 00:57:30;;;;;;;;;25.00;23.00;;;;;;;;5105253;27;44715;-75
2022/10/07 00:59:56;;;;;;;;;26.33;22.00;;;;;;;;5090911;27;45432;-75
2022/10/07 01:02:22;;;;;;;;;32.33;25.67;;;;;;;;5108838;27;45360;-79
2022/10/07 01:04:49;;;;;;;;;25.33;24.00;;;;;;;;5096796;27;45120;-79
2022/10/07 01:07:17;;;;;;;;;29.67;23.67;;;;;;;;5091993;27;45267;-76
2022/10/07 01:09:42;;;;;;;;;22.67;20.00;;;;;;;;5069697;27;45779;-75
2022/10/07 01:12:16;;;;;;;;;24.00;19.00;;;;;;;;5069236;27;46155;-74
2022/10/07 01:14:44;;;;;;;;;23.00;20.67;;;;;;;;5086846;27;45404;-75
2022/10/07 01:17:17;;;;;;;;;24.67;19.67;;;;;;;;5107368;27;45255;-75
2022/10/07 01:20:00;;;;;;;;;19.33;18.00;;;;;;;;5108617;27;45475;-77
2022/10/07 01:22:37;;;;;;;;;18.67;17.67;;;;;;;;5109521;27;45613;-76
2022/10/07 01:25:05;;;;;;;;;21.67;19.33;;;;;;;;5107888;27;45358;-75
2022/10/07 01:27:31;;;;;;;;;22.33;19.67;;;;;;;;5107878;27;45406;-76
2022/10/07 01:30:06;;;;;;;;;25.67;20.00;;;;;;;;5107541;27;45463;-76
2022/10/07 01:32:35;;;;;;;;;21.00;19.00;;;;;;;;5102508;27;45512;-80
2022/10/07 01:35:04;;;;;;;;;23.67;20.00;;;;;;;;5102033;27;44755;-80
2022/10/07 01:37:33;;;;;;;;;20.33;19.33;;;;;;;;5101585;27;44661;-82
2022/10/07 01:40:02;;;;;;;;;24.33;17.33;;;;;;;;5115873;27;45231;-75
2022/10/07 01:42:28;;;;;;;;;22.00;21.00;;;;;;;;5089489;27;45480;-75
2022/10/07 01:44:55;;;;;;;;;24.00;23.00;;;;;;;;5098358;27;45393;-76
2022/10/07 01:47:21;;;;;;;;;22.67;21.67;;;;;;;;5090800;27;44835;-76
2022/10/07 01:49:47;;;;;;;;;25.33;20.33;;;;;;;;5101411;27;45636;-75
2022/10/07 01:52:22;;;;;;;;;26.33;22.00;;;;;;;;5101612;27;45291;-82
2022/10/07 01:55:06;;;;;;;;;22.67;21.00;;;;;;;;5112440;27;45267;-79
2022/10/07 01:57:48;;;;;;;;;26.67;22.67;;;;;;;;5090019;27;45314;-77
2022/10/07 02:00:15;;;;;;;;;30.33;21.00;;;;;;;;5103057;27;45406;-81
2022/10/07 02:02:54;;;;;;;;;24.67;16.67;;;;;;;;5113058;27;45424;-75
2022/10/07 02:05:33;;;;;;;;;19.00;18.00;;;;;;;;5108203;27;45405;-76
2022/10/07 02:08:22;;;;;;;;;22.67;19.33;;;;;;;;5096082;27;45286;-75
2022/10/07 02:10:54;;;;;;;;;19.67;19.67;;;;;;;;5101764;27;45403;-75
2022/10/07 02:13:30;;;;;;;;;18.00;15.33;;;;;;;;5081868;27;47043;-73
2022/10/07 02:16:11;;;;;;;;;20.00;19.67;;;;;;;;5074722;28;45471;-76
2022/10/07 02:18:38;;;;;;;;;27.33;22.00;;;;;;;;5071086;27;44863;-74
2022/10/07 02:21:05;;;;;;;;;29.67;23.00;;;;;;;;5106719;27;45670;-75
2022/10/07 02:23:33;;;;;;;;;27.00;23.00;;;;;;;;5106112;27;45392;-74
2022/10/07 02:25:59;;;;;;;;;26.67;20.00;;;;;;;;5087458;27;45245;-76
2022/10/07 02:28:25;;;;;;;;;26.33;19.00;;;;;;;;5106274;27;44870;-75
2022/10/07 02:30:53;;;;;;;;;29.00;24.00;;;;;;;;5106358;27;45483;-75
2022/10/07 02:33:19;;;;;;;;;23.00;20.00;;;;;;;;5086705;27;45458;-76
2022/10/07 02:35:53;;;;;;;;;26.00;21.33;;;;;;;;5102427;27;45644;-77
2022/10/07 02:38:19;;;;;;;;;19.33;15.00;;;;;;;;5092867;27;45097;-76
2022/10/07 02:40:48;;;;;;;;;24.67;19.67;;;;;;;;5087933;27;45984;-76
2022/10/07 02:43:20;;;;;;;;;17.67;16.33;;;;;;;;5105433;27;45517;-73
2022/10/07 02:45:54;;;;;;;;;21.33;17.00;;;;;;;;5085720;28;45671;-76
2022/10/07 02:48:22;;;;;;;;;19.67;17.67;;;;;;;;5091532;27;45377;-77
2022/10/07 02:50:50;;;;;;;;;23.00;18.00;;;;;;;;5097828;27;45426;-76
2022/10/07 02:53:17;;;;;;;;;28.67;21.00;;;;;;;;5106228;27;47542;-75
2022/10/07 02:55:43;;;;;;;;;21.33;18.00;;;;;;;;5113727;27;45378;-81
2022/10/07 02:58:10;;;;;;;;;21.67;15.33;;;;;;;;5120319;27;44712;-80
2022/10/07 03:00:38;;;;;;;;;19.00;14.67;;;;;;;;5101523;27;44847;-79
2022/10/07 03:03:03;;;;;;;;;12.33;11.00;;;;;;;;5119275;27;45197;-79
2022/10/07 03:05:29;;;;;;;;;16.00;15.00;;;;;;;;5088405;27;45532;-80
2022/10/07 03:07:58;;;;;;;;;20.67;17.33;;;;;;;;5113797;27;44786;-80
2022/10/07 03:10:25;;;;;;;;;16.67;15.67;;;;;;;;5115944;27;45705;-81
2022/10/07 03:12:51;;;;;;;;;17.33;15.33;;;;;;;;5102583;27;47391;-80
2022/10/07 03:15:16;;;;;;;;;14.00;13.67;;;;;;;;5117790;27;44789;-78
2022/10/07 03:17:42;;;;;;;;;20.67;14.33;;;;;;;;5094065;27;45405;-81
2022/10/07 03:20:08;;;;;;;;;19.67;14.00;;;;;;;;5118761;27;45052;-82
2022/10/07 03:22:34;;;;;;;;;14.33;12.33;;;;;;;;5088240;28;46673;-75
2022/10/07 03:24:59;;;;;;;;;20.67;15.00;;;;;;;;5081634;27;45531;-77
2022/10/07 03:27:24;;;;;;;;;17.00;13.00;;;;;;;;5080830;28;45456;-76
2022/10/07 03:29:50;;;;;;;;;26.00;14.00;;;;;;;;5086614;27;45913;-74
2022/10/07 03:32:15;;;;;;;;;15.33;12.67;;;;;;;;5092351;27;45583;-74
2022/10/07 03:34:40;;;;;;;;;13.00;11.33;;;;;;;;5106133;27;45750;-75
2022/10/07 03:37:06;;;;;;;;;14.00;12.67;;;;;;;;5105315;27;45194;-75
2022/10/07 03:39:32;;;;;;;;;15.00;13.00;;;;;;;;5106629;27;45398;-76
2022/10/07 03:41:57;;;;;;;;;19.00;14.67;;;;;;;;5105770;27;46302;-76
2022/10/07 03:44:22;;;;;;;;;13.00;11.00;;;;;;;;5086984;27;45441;-75
2022/10/07 03:46:48;;;;;;;;;20.67;14.67;;;;;;;;5091439;27;45365;-80
2022/10/07 03:49:14;;;;;;;;;13.67;12.00;;;;;;;;5111258;27;45462;-77
2022/10/07 03:51:39;;;;;;;;;12.67;11.33;;;;;;;;5083344;27;47073;-75
2022/10/07 03:54:06;;;;;;;;;14.33;14.00;;;;;;;;5084879;27;45487;-74
2022/10/07 03:56:31;;;;;;;;;18.67;15.67;;;;;;;;5113206;27;45333;-79
2022/10/07 03:59:00;;;;;;;;;32.00;26.33;;;;;;;;5115135;27;45264;-79
2022/10/07 04:01:26;;;;;;;;;22.67;19.00;;;;;;;;5109712;27;48123;-76
2022/10/07 04:03:51;;;;;;;;;20.67;15.67;;;;;;;;5114910;27;44870;-79
2022/10/07 04:06:17;;;;;;;;;21.00;15.67;;;;;;;;5101600;27;45568;-83
2022/10/07 04:08:43;;;;;;;;;21.00;16.00;;;;;;;;5118208;27;44894;-81
2022/10/07 04:11:09;;;;;;;;;23.67;15.67;;;;;;;;5118209;27;45393;-83
2022/10/07 04:13:34;;;;;;;;;24.67;19.00;;;;;;;;5107008;27;44649;-84
2022/10/07 04:16:04;;;;;;;;;19.67;16.67;;;;;;;;5124181;27;44736;-83
2022/10/07 04:18:29;;;;;;;;;20.67;17.00;;;;;;;;5123343;27;45365;-84
2022/10/07 04:20:57;;;;;;;;;17.33;16.00;;;;;;;;5106258;27;46538;-85
2022/10/07 04:23:24;;;;;;;;;29.33;16.33;;;;;;;;5125024;27;44767;-85
2022/10/07 04:25:49;;;;;;;;;23.00;19.67;;;;;;;;5100045;22;45263;-68
2022/10/07 04:28:17;;;;;;;;;25.67;19.33;;;;;;;;5070395;27;46801;-66
2022/10/07 04:30:43;;;;;;;;;25.67;21.00;;;;;;;;5078368;27;45398;-66
2022/10/07 04:33:09;;;;;;;;;24.00;18.00;;;;;;;;5065221;27;45742;-67
2022/10/07 04:35:37;;;;;;;;;20.00;17.00;;;;;;;;5081528;27;45874;-66
2022/10/07 04:38:04;;;;;;;;;19.33;15.67;;;;;;;;5085616;27;45601;-66
2022/10/07 04:40:29;;;;;;;;;25.33;23.00;;;;;;;;5081750;27;45744;-66
2022/10/07 04:45:39;;;;;;;;;15.67;12.33;;;;;;;;5081316;27;45812;-65
2022/10/07 04:48:05;;;;;;;;;21.33;15.00;;;;;;;;5080234;27;45317;-67
2022/10/07 04:50:37;;;;;;;;;23.67;20.00;;;;;;;;5083244;27;45455;-66
2022/10/07 04:53:03;;;;;;;;;15.00;14.67;;;;;;;;5081699;27;45661;-68
2022/10/07 04:55:28;;;;;;;;;18.33;15.00;;;;;;;;5084298;27;45585;-69
2022/10/07 04:57:53;;;;;;;;;14.67;12.67;;;;;;;;5086759;27;45514;-67
2022/10/07 05:00:19;;;;;;;;;25.00;16.00;;;;;;;;5084621;27;45295;-66
2022/10/07 05:02:49;;;;;;;;;16.33;15.00;;;;;;;;5084736;27;45415;-67
2022/10/07 05:05:14;;;;;;;;;24.33;15.00;;;;;;;;5065837;27;45518;-67
2022/10/07 05:07:39;;;;;;;;;20.67;16.33;;;;;;;;5076451;27;45462;-67
2022/10/07 05:10:05;;;;;;;;;11.67;7.00;;;;;;;;5076023;27;45425;-67
2022/10/07 05:12:30;;;;;;;;;15.67;14.00;;;;;;;;5061929;27;45631;-70
2022/10/07 05:14:55;;;;;;;;;20.67;14.67;;;;;;;;5079515;27;45591;-69
2022/10/07 05:17:21;;;;;;;;;19.33;14.00;;;;;;;;5108644;27;46248;-67
2022/10/07 05:19:46;;;;;;;;;26.67;18.67;;;;;;;;5081965;27;46595;-68
2022/10/07 05:22:12;;;;;;;;;18.67;14.67;;;;;;;;5087551;27;45681;-67
2022/10/07 05:24:37;;;;;;;;;18.67;16.00;;;;;;;;5082282;27;45873;-66
2022/10/07 05:27:02;;;;;;;;;19.00;16.00;;;;;;;;5092779;27;45377;-69
2022/10/07 05:29:28;;;;;;;;;17.67;15.67;;;;;;;;5094227;27;46241;-66
2022/10/07 05:31:53;;;;;;;;;15.00;13.67;;;;;;;;5084011;27;45455;-70
2022/10/07 05:34:19;;;;;;;;;24.33;20.33;;;;;;;;5096667;27;45342;-67
2022/10/07 05:36:44;;;;;;;;;11.33;10.33;;;;;;;;5081482;27;45963;-69
2022/10/07 05:39:13;;;;;;;;;22.33;18.33;;;;;;;;5090819;27;46863;-66
2022/10/07 05:41:38;;;;;;;;;17.00;14.00;;;;;;;;5096078;27;45396;-67
2022/10/07 05:44:04;;;;;;;;;20.33;19.00;;;;;;;;5091774;27;45827;-67
2022/10/07 05:46:29;;;;;;;;;16.67;14.67;;;;;;;;5092389;27;45507;-67
2022/10/07 05:48:55;;;;;;;;;16.33;14.33;;;;;;;;5081307;27;47328;-66
2022/10/07 05:51:21;;;;;;;;;22.00;14.33;;;;;;;;5090195;27;45764;-67
2022/10/07 05:53:47;;;;;;;;;20.67;15.00;;;;;;;;5083699;27;45763;-66
2022/10/07 05:56:18;;;;;;;;;11.00;7.67;;;;;;;;5076428;27;46032;-67
2022/10/07 05:58:44;;;;;;;;;17.67;14.00;;;;;;;;5095011;27;45660;-66
2022/10/07 06:01:14;;;;;;;;;17.33;14.33;;;;;;;;5075536;27;45369;-67
2022/10/07 06:03:40;;;;;;;;;16.00;13.33;;;;;;;;5087379;27;45338;-66
2022/10/07 06:06:07;;;;;;;;;16.67;15.00;;;;;;;;5095727;27;45801;-65
2022/10/07 06:08:33;;;;;;;;;22.33;15.67;;;;;;;;5090488;27;46720;-67
2022/10/07 06:13:46;;;;;;;;;18.67;15.33;;;;;;;;5085086;27;45870;-66
2022/10/07 06:16:11;;;;;;;;;21.00;17.67;;;;;;;;5090742;27;46001;-66
2022/10/07 06:18:37;;;;;;;;;26.00;21.00;;;;;;;;5071780;27;46889;-67
2022/10/07 06:21:03;;;;;;;;;22.33;16.33;;;;;;;;5095361;27;45618;-67
2022/10/07 06:23:29;;;;;;;;;24.00;15.67;;;;;;;;5075450;27;45582;-69
2022/10/07 06:25:55;;;;;;;;;18.67;15.00;;;;;;;;5081234;27;45673;-66
2022/10/07 06:28:20;;;;;;;;;17.67;16.00;;;;;;;;5080123;27;46399;-65
2022/10/07 06:30:46;;;;;;;;;15.67;14.33;;;;;;;;5075381;27;45650;-68
2022/10/07 06:33:11;;;;;;;;;21.33;18.33;;;;;;;;5059150;27;45406;-66
2022/10/07 06:35:36;;;;;;;;;19.00;17.33;;;;;;;;5075529;27;45547;-67
2022/10/07 06:38:03;;;;;;;;;22.00;18.67;;;;;;;;5067788;27;46800;-67
2022/10/07 06:40:28;;;;;;;;;21.67;18.67;;;;;;;;5076168;27;46209;-66
2022/10/07 06:42:54;;;;;;;;;28.00;19.33;;;;;;;;5076548;27;45454;-67
2022/10/07 06:45:19;;;;;;;;;17.33;16.00;;;;;;;;5066746;27;45921;-69
2022/10/07 06:47:44;;;;;;;;;21.33;19.33;;;;;;;;5079087;27;45591;-67
2022/10/07 06:50:09;;;;;;;;;21.00;18.00;;;;;;;;5071513;27;46316;-70
2022/10/07 06:52:35;;;;;;;;;28.00;21.33;;;;;;;;5086653;27;45497;-69
2022/10/07 06:55:00;;;;;;;;;19.33;16.67;;;;;;;;5090402;27;45540;-68
2022/10/07 06:57:25;;;;;;;;;19.00;19.00;;;;;;;;5081304;27;46009;-71
2022/10/07 06:59:53;;;;;;;;;20.33;17.67;;;;;;;;5084957;27;45779;-69
2022/10/07 07:02:19;;;;;;;;;25.33;19.67;;;;;;;;5088251;27;45727;-71
2022/10/07 07:04:44;;;;;;;;;26.67;24.00;;;;;;;;5085060;27;45716;-67
2022/10/07 07:07:10;;;;;;;;;25.33;22.33;;;;;;;;5070966;27;47166;-67
2022/10/07 07:09:35;;;;;;;;;20.33;16.33;;;;;;;;5086205;27;45538;-69
2022/10/07 07:12:01;;;;;;;;;23.67;20.00;;;;;;;;5089587;27;45548;-69
2022/10/07 07:14:27;;;;;;;;;29.33;22.00;;;;;;;;5088646;27;45529;-69
2022/10/07 07:16:52;;;;;;;;;23.33;17.67;;;;;;;;5085980;27;46844;-68
2022/10/07 07:19:18;;;;;;;;;23.00;16.33;;;;;;;;5089205;27;46119;-69
2022/10/07 07:21:43;;;;;;;;;28.67;21.67;;;;;;;;5073635;27;45505;-70
2022/10/07 07:24:08;;;;;;;;;27.67;24.00;;;;;;;;5070619;27;46481;-69
2022/10/07 07:26:34;;;;;;;;;24.00;20.33;;;;;;;;5086575;27;46326;-70
2022/10/07 07:29:01;;;;;;;;;37.00;25.67;;;;;;;;5093106;27;45720;-69
2022/10/07 07:31:28;;;;;;;;;22.33;20.00;;;;;;;;5089366;27;45472;-71
2022/10/07 07:33:54;;;;;;;;;31.33;23.33;;;;;;;;5087265;27;45390;-73
2022/10/07 07:36:23;;;;;;;;;26.33;21.33;;;;;;;;5074840;27;47134;-69
2022/10/07 07:38:53;;;;;;;;;26.00;22.00;;;;;;;;5081777;27;45948;-69
2022/10/07 07:41:19;;;;;;;;;26.67;22.33;;;;;;;;5086914;27;45825;-71
2022/10/07 07:43:49;;;;;;;;;24.33;19.67;;;;;;;;5082214;27;46448;-71
2022/10/07 07:46:14;;;;;;;;;29.33;26.67;;;;;;;;5087006;27;45562;-69
2022/10/07 07:48:40;;;;;;;;;32.33;27.00;;;;;;;;5079115;27;45820;-71
2022/10/07 07:51:06;;;;;;;;;25.67;24.00;;;;;;;;5088655;27;45931;-69
2022/10/07 07:53:33;;;;;;;;;32.67;28.00;;;;;;;;5089361;27;46742;-72
2022/10/07 07:55:58;;;;;;;;;36.33;28.33;;;;;;;;5080212;27;45360;-69
2022/10/07 07:58:24;;;;;;;;;37.67;33.00;;;;;;;;5081343;27;45373;-70
2022/10/07 08:01:04;;;;;;;;;35.33;29.67;;;;;;;;5074954;27;45568;-71
2022/10/07 08:03:30;;;;;;;;;34.33;29.67;;;;;;;;5081912;27;45522;-71
2022/10/07 08:05:59;;;;;;;;;34.67;30.33;;;;;;;;5081992;27;45492;-73
2022/10/07 08:08:24;;;;;;;;;31.33;28.33;;;;;;;;5079712;27;45765;-72
2022/10/07 08:10:49;;;;;;;;;29.33;28.67;;;;;;;;5076691;27;45608;-73
2022/10/07 08:13:15;;;;;;;;;38.33;29.33;;;;;;;;5091303;27;46958;-72
2022/10/07 08:15:40;;;;;;;;;35.33;29.33;;;;;;;;5080663;27;45756;-71
2022/10/07 08:18:09;;;;;;;;;33.00;29.33;;;;;;;;5077879;27;45796;-73
2022/10/07 08:20:35;;;;;;;;;29.00;25.67;;;;;;;;5083552;27;45729;-70
2022/10/07 08:23:01;;;;;;;;;31.33;27.67;;;;;;;;5068725;27;46046;-70
2022/10/07 08:25:27;;;;;;;;;34.33;30.67;;;;;;;;5082825;27;45532;-69
2022/10/07 08:27:52;;;;;;;;;40.33;36.00;;;;;;;;5088457;27;45643;-70
2022/10/07 08:30:17;;;;;;;;;31.67;30.00;;;;;;;;5087385;27;46094;-72
2022/10/07 08:32:43;;;;;;;;;31.33;24.33;;;;;;;;5089796;27;45742;-70
2022/10/07 08:35:08;;;;;;;;;41.67;31.33;;;;;;;;5087233;27;45504;-70
2022/10/07 08:37:34;;;;;;;;;2.67;1.00;;;;;;;;5067442;27;45521;-71
2022/10/07 08:39:59;;;;;;;;;33.00;31.67;;;;;;;;5094952;27;45678;-70
2022/10/07 08:42:29;;;;;;;;;52.00;35.33;;;;;;;;5084574;27;45689;-71
2022/10/07 08:44:54;;;;;;;;;30.00;24.33;;;;;;;;5089781;27;45667;-70
2022/10/07 08:47:38;;;;;;;;;38.33;32.33;;;;;;;;5064681;28;45555;-71
2022/10/07 08:50:17;;;;;;;;;37.33;32.00;;;;;;;;5084014;27;45802;-72
2022/10/07 08:52:58;;;;;;;;;32.33;30.67;;;;;;;;5089834;27;45537;-70
2022/10/07 08:55:43;;;;;;;;;31.33;25.67;;;;;;;;5082603;27;46542;-69
2022/10/07 08:58:18;;;;;;;;;27.00;24.33;;;;;;;;5087213;27;45820;-70
2022/10/07 09:00:56;;;;;;;;;29.67;25.00;;;;;;;;5079681;27;45752;-69
2022/10/07 09:03:36;;;;;;;;;28.67;28.67;;;;;;;;5094382;27;45589;-71
2022/10/07 09:06:06;;;;;;;;;33.33;31.33;;;;;;;;5088646;27;45647;-70
2022/10/07 09:08:34;;;;;;;;;34.00;26.00;;;;;;;;5078072;27;45748;-70
2022/10/07 09:11:14;;;;;;;;;24.33;20.33;;;;;;;;5085220;27;45255;-72
2022/10/07 09:13:42;;;;;;;;;28.33;26.00;;;;;;;;5066557;27;46377;-73
2022/10/07 09:16:43;;;;;;;;;30.33;23.67;;;;;;;;5077190;27;47270;-73
2022/10/07 09:19:28;;;;;;;;;25.00;21.00;;;;;;;;5004540;28;46480;-70
2022/10/07 09:21:56;;;;;;;;;27.33;21.33;;;;;;;;5076891;27;46861;-71
2022/10/07 09:24:23;;;;;;;;;30.00;24.00;;;;;;;;5084559;27;45585;-70
2022/10/07 09:26:50;;;;;;;;;22.00;18.33;;;;;;;;5091349;27;45890;-71
2022/10/07 09:29:18;;;;;;;;;25.33;20.67;;;;;;;;5087645;27;45583;-73
2022/10/07 09:31:43;;;;;;;;;15.67;15.33;;;;;;;;5090787;27;45419;-71
2022/10/07 09:34:28;;;;;;;;;16.00;15.33;;;;;;;;5086083;27;45939;-68
2022/10/07 09:37:12;;;;;;;;;18.33;18.00;;;;;;;;5093387;27;46426;-69
2022/10/07 09:39:37;;;;;;;;;20.33;17.33;;;;;;;;5096630;27;45294;-69
2022/10/07 09:42:05;;;;;;;;;22.00;14.75;;;;;;;;5094224;27;45379;-70
2022/10/07 09:44:31;;;;;;;;;21.50;18.50;;;;;;;;5095658;27;45518;-68
2022/10/07 09:46:58;;;;;;;;;20.75;17.75;;;;;;;;5111332;27;45985;-70
2022/10/07 09:49:34;;;;;;;;;19.75;14.25;;;;;;;;5094278;27;45462;-69
2022/10/07 09:52:00;;;;;;;;;15.00;12.00;;;;;;;;5104366;27;45572;-69
2022/10/07 09:54:26;;;;;;;;;10.25;9.00;;;;;;;;5083309;27;45849;-71
2022/10/07 09:56:56;;;;;;;;;8.50;7.25;;;;;;;;5076491;27;47268;-70
2022/10/07 09:59:23;;;;;;;;;7.50;6.50;;;;;;;;5094409;27;45808;-70
2022/10/07 10:01:52;;;;;;;;;8.50;8.25;;;;;;;;5092237;27;45734;-69
2022/10/07 10:04:18;;;;;;;;;12.25;8.75;;;;;;;;5097748;27;45577;-70
2022/10/07 10:06:48;;;;;;;;;10.50;7.50;;;;;;;;5072304;27;47052;-69
2022/10/07 10:09:18;;;;;;;;;8.50;8.50;;;;;;;;5093592;27;45413;-69
2022/10/07 10:11:44;;;;;;;;;9.75;8.50;;;;;;;;5073328;27;45874;-69
2022/10/07 10:14:35;;;;;;;;;11.50;10.00;;;;;;;;5094464;27;45834;-69
2022/10/07 10:17:02;;;;;;;;;9.25;7.50;;;;;;;;5067346;27;47109;-70
2022/10/07 10:19:28;;;;;;;;;10.75;7.50;;;;;;;;5089218;27;45895;-70
2022/10/07 10:21:57;;;;;;;;;12.00;9.50;;;;;;;;5074837;27;46024;-68
2022/10/07 10:27:14;;;;;;;;;12.50;8.00;;;;;;;;5096182;27;46340;-68
2022/10/07 10:30:09;;;;;;;;;4.25;3.00;;;;;;;;5075285;27;45786;-69
2022/10/07 10:32:53;;;;;;;;;4.75;4.00;;;;;;;;5060823;27;45489;-71
2022/10/07 10:35:25;;;;;;;;;5.75;4.00;;;;;;;;5091937;27;45649;-71
2022/10/07 10:38:02;;;;;;;;;9.75;7.25;;;;;;;;5097671;27;46490;-69
2022/10/07 10:40:27;;;;;;;;;27.33;23.67;;;;;;;;5092247;27;45364;-68
2022/10/07 10:43:05;;;;;;;;;5.50;5.25;;;;;;;;5085697;27;45839;-70
2022/10/07 10:45:36;;;;;;;;;5.50;4.00;;;;;;;;5104781;27;45578;-69
2022/10/07 10:48:21;;;;;;;;;5.25;5.25;;;;;;;;5093257;27;45369;-69
2022/10/07 10:51:05;;;;;;;;;6.50;4.00;;;;;;;;5076965;27;45681;-69
2022/10/07 10:53:37;;;;;;;;;5.50;3.25;;;;;;;;5089009;27;45725;-70
2022/10/07 10:56:06;;;;;;;;;3.00;3.00;;;;;;;;5094019;27;45407;-70
2022/10/07 10:58:31;;;;;;;;;2.25;2.00;;;;;;;;5077046;27;47221;-73
2022/10/07 11:01:15;;;;;;;;;6.00;3.75;;;;;;;;5094528;27;45393;-71
2022/10/07 11:03:53;;;;;;;;;2.00;2.00;;;;;;;;5094571;27;45803;-72
2022/10/07 11:06:19;;;;;;;;;16.25;14.00;;;;;;;;5081818;27;45791;-73
2022/10/07 11:08:46;;;;;;;;;3.50;3.50;;;;;;;;5090119;27;47370;-71
2022/10/07 11:11:15;;;;;;;;;3.50;2.25;;;;;;;;5102080;27;45404;-70
2022/10/07 11:14:04;;;;;;;;;2.00;1.25;;;;;;;;5094702;27;45790;-73
2022/10/07 11:16:38;;;;;;;;;4.25;3.00;;;;;;;;5093984;27;45615;-72
2022/10/07 11:19:24;;;;;;;;;2.25;1.25;;;;;;;;5093546;27;47492;-71
2022/10/07 11:21:50;;;;;;;;;4.50;1.50;;;;;;;;5092459;27;45875;-71
2022/10/07 11:24:41;;;;;;;;;2.25;0.75;;;;;;;;5093712;27;45770;-72
2022/10/07 11:27:10;;;;;;;;;3.00;1.50;;;;;;;;5070652;27;45397;-71
2022/10/07 11:29:41;;;;;;;;;2.50;2.00;;;;;;;;5075487;27;45529;-71
2022/10/07 11:32:10;;;;;;;;;2.00;1.00;;;;;;;;5092361;27;45776;-69
2022/10/07 11:34:42;;;;;;;;;1.00;1.00;;;;;;;;5087802;27;45719;-72
2022/10/07 11:37:40;;;;;;;;;1.25;1.25;;;;;;;;5069242;27;45464;-68
2022/10/07 11:40:06;;;;;;;;;4.00;2.00;;;;;;;;5024973;27;45517;-68
2022/10/07 11:42:39;;;;;;;;;1.75;1.75;;;;;;;;5074175;27;46223;-68
2022/10/07 11:45:07;;;;;;;;;4.00;2.00;;;;;;;;5095684;27;46007;-69
2022/10/07 11:47:55;;;;;;;;;1.25;1.25;;;;;;;;5093384;27;46786;-68
2022/10/07 11:50:24;;;;;;;;;3.50;2.00;;;;;;;;5080494;27;45723;-68
2022/10/07 11:52:52;;;;;;;;;3.75;1.50;;;;;;;;5093026;27;45756;-68
2022/10/07 11:55:26;;;;;;;;;2.75;1.00;;;;;;;;5092057;27;45673;-69
2022/10/07 11:57:56;;;;;;;;;2.00;1.00;;;;;;;;5074827;27;45827;-70
2022/10/07 12:00:35;;;;;;;;;4.00;1.50;;;;;;;;5088070;27;45510;-70
2022/10/07 12:03:10;;;;;;;;;6.00;2.00;;;;;;;;5077984;27;45636;-69
2022/10/07 12:05:35;;;;;;;;;4.75;3.00;;;;;;;;5089434;27;45471;-68
2022/10/07 12:08:17;;;;;;;;;2.75;2.00;;;;;;;;5090940;27;45674;-71
2022/10/07 12:10:42;;;;;;;;;1.75;1.00;;;;;;;;5073630;27;46586;-71
2022/10/07 12:13:08;;;;;;;;;3.00;2.00;;;;;;;;5096451;27;45757;-69
2022/10/07 12:15:43;;;;;;;;;1.00;1.00;;;;;;;;5093716;27;46120;-71
2022/10/07 12:18:09;;;;;;;;;2.25;1.00;;;;;;;;5091274;27;45653;-71
2022/10/07 12:20:46;;;;;;;;;2.50;1.25;;;;;;;;5090086;27;45914;-70
2022/10/07 12:25:47;;;;;;;;;2.00;1.25;;;;;;;;5092181;27;45454;-69
2022/10/07 12:28:18;;;;;;;;;2.25;0.75;;;;;;;;5093070;27;45934;-69
2022/10/07 12:31:12;;;;;;;;;1.25;1.25;;;;;;;;5108307;27;47025;-68
2022/10/07 12:33:43;;;;;;;;;4.00;2.25;;;;;;;;5075921;27;45329;-69
2022/10/07 12:36:35;;;;;;;;;8.50;2.75;;;;;;;;5099598;27;45405;-70
2022/10/07 12:39:00;;;;;;;;;3.00;1.25;;;;;;;;5099195;27;45640;-69
2022/10/07 12:41:29;;;;;;;;;3.75;1.50;;;;;;;;5100301;27;45719;-69
2022/10/07 12:44:06;;;;;;;;;6.75;2.00;;;;;;;;5090808;27;45713;-69
2022/10/07 12:46:49;;;;;;;;;2.00;2.00;;;;;;;;5097109;27;45669;-70
2022/10/07 12:49:35;;;;;;;;;3.50;2.25;;;;;;;;5093714;27;45471;-68
2022/10/07 12:52:05;;;;;;;;;1.25;0.75;;;;;;;;5086256;27;46102;-69
2022/10/07 12:54:31;;;;;;;;;3.75;1.50;;;;;;;;5103452;27;45585;-69
2022/10/07 12:56:57;;;;;;;;;2.00;2.00;;;;;;;;5083512;27;45497;-68
2022/10/07 12:59:47;;;;;;;;;2.75;2.75;;;;;;;;5101336;27;45528;-68
2022/10/07 13:02:16;;;;;;;;;1.00;1.00;;;;;;;;5066729;27;47749;-70
2022/10/07 13:04:59;;;;;;;;;2.00;0.75;;;;;;;;5092750;27;45838;-72
2022/10/07 13:07:42;;;;;;;;;3.75;3.00;;;;;;;;5092333;27;45739;-70
2022/10/07 13:10:07;;;;;;;;;3.75;2.00;;;;;;;;5098450;27;45723;-70
2022/10/07 13:12:49;;;;;;;;;8.67;6.33;;;;;;;;5096190;27;45762;-68
2022/10/07 13:15:21;;;;;;;;;5.50;1.00;;;;;;;;5096314;27;45329;-70
2022/10/07 13:17:53;;;;;;;;;3.50;2.50;;;;;;;;5105315;27;45479;-71
2022/10/07 13:20:27;;;;;;;;;4.75;1.25;;;;;;;;5103625;27;45655;-68
2022/10/07 13:22:53;;;;;;;;;5.25;5.25;;;;;;;;5093731;27;47000;-70
2022/10/07 13:25:19;;;;;;;;;4.00;3.75;;;;;;;;5095226;27;45345;-72
2022/10/07 13:27:56;;;;;;;;;8.67;7.67;;;;;;;;5107356;27;45399;-69
2022/10/07 13:30:35;;;;;;;;;2.00;2.00;;;;;;;;5099213;27;45747;-71
2022/10/07 13:33:18;;;;;;;;;1.25;1.25;;;;;;;;5101539;27;46778;-69
2022/10/07 13:35:44;;;;;;;;;2.50;2.00;;;;;;;;5115843;27;45649;-70
2022/10/07 13:38:26;;;;;;;;;2.00;2.00;;;;;;;;5114555;27;45988;-70
2022/10/07 13:40:52;;;;;;;;;10.33;10.33;;;;;;;;5107565;27;45519;-70
2022/10/07 13:43:25;;;;;;;;;2.25;2.00;;;;;;;;5106627;27;45823;-69
2022/10/07 13:45:50;;;;;;;;;6.33;4.00;;;;;;;;5094658;27;45313;-70
2022/10/07 13:48:22;;;;;;;;;68.25;52.75;;;;;;;;5094808;27;45692;-70
2022/10/07 13:50:49;;;;;;;;;8.00;8.00;;;;;;;;5094533;27;45660;-69
2022/10/07 13:53:40;;;;;;;;;22.00;17.33;;;;;;;;5090047;27;45674;-69
2022/10/07 13:56:25;;;;;;;;;4.00;4.00;;;;;;;;5076441;27;45271;-70
2022/10/07 13:58:53;;;;;;;;;11.67;11.33;;;;;;;;5095625;27;45709;-69
2022/10/07 14:01:19;;;;;;;;;4.50;3.50;;;;;;;;5073636;27;46610;-68
2022/10/07 14:04:00;;;;;;;;;5.00;3.25;;;;;;;;5093011;27;45786;-70
2022/10/07 14:06:35;;;;;;;;;12.33;10.33;;;;;;;;5091004;27;45767;-71
2022/10/07 14:09:00;;;;;;;;;5.00;4.00;;;;;;;;5102940;27;45703;-71
2022/10/07 14:11:27;;;;;;;;;8.00;7.67;;;;;;;;5094987;27;45720;-72
2022/10/07 14:13:52;;;;;;;;;3.25;2.00;;;;;;;;5100951;27;46701;-72
2022/10/07 14:16:21;;;;;;;;;18.00;15.67;;;;;;;;5095900;27;45355;-71
2022/10/07 14:18:47;;;;;;;;;33.33;28.67;;;;;;;;5086174;27;45309;-71
2022/10/07 14:21:16;;;;;;;;;5.67;4.33;;;;;;;;5077733;27;47216;-75
2022/10/07 14:23:42;;;;;;;;;14.67;13.00;;;;;;;;5075428;27;46390;-73
2022/10/07 14:26:09;;;;;;;;;16.67;11.33;;;;;;;;5093325;27;45758;-73
2022/10/07 14:28:36;;;;;;;;;17.33;17.00;;;;;;;;5064933;28;45492;-73
2022/10/07 14:37:02;;;;;;;;;2.75;2.75;;;;;;;;5095438;27;45544;-74
2022/10/07 14:39:37;;;;;;;;;2.50;2.50;;;;;;;;5109394;27;45672;-72
2022/10/07 14:42:03;;;;;;;;;17.67;11.00;;;;;;;;5067593;27;47062;-75
2022/10/07 14:44:29;;;;;;;;;2.25;2.25;;;;;;;;5091635;27;45876;-74
2022/10/07 14:47:21;;;;;;;;;5.33;4.33;;;;;;;;5083929;27;45646;-71
2022/10/07 14:49:51;;;;;;;;;4.00;1.50;;;;;;;;5082316;27;45594;-75
2022/10/07 14:52:19;;;;;;;;;4.00;4.00;;;;;;;;5097390;27;45428;-72
2022/10/07 14:54:45;;;;;;;;;4.75;3.00;;;;;;;;5091604;27;46662;-74